createdAt,value
2022-08-05T05:14:55.184Z,20.60
2022-08-05T05:19:48.828Z,20.70
2022-08-05T05:24:57.083Z,20.90
2022-08-05T05:43:56.953Z,21.70
2022-08-05T05:48:44.234Z,21.90
2022-08-05T05:53:45.933Z,22.20
2022-08-05T05:58:49.608Z,22.40
2022-08-05T06:04:01.181Z,22.60
2022-08-05T06:08:57.081Z,22.80
2022-08-05T06:13:54.109Z,22.90
2022-08-05T06:18:48.946Z,23.20
2022-08-05T06:23:49.836Z,23.30
2022-08-05T06:40:02.639Z,23.90
2022-08-05T06:44:56.187Z,24.10
2022-08-05T06:50:01.917Z,24.30
2022-08-05T06:54:58.852Z,24.40
2022-08-05T06:59:58.004Z,24.60
2022-08-05T07:16:00.912Z,25.20
2022-08-05T07:20:48.143Z,25.40
2022-08-05T07:25:56.398Z,25.60
2022-08-05T07:30:52.936Z,25.80
2022-08-05T07:36:04.783Z,26.10
2022-08-05T07:52:40.358Z,26.90
2022-08-05T07:57:41.678Z,27.10
2022-08-05T08:03:15.282Z,27.30
2022-08-05T08:08:04.715Z,27.50
2022-08-05T08:13:13.429Z,27.80
2022-08-05T08:18:15.704Z,28.20
2022-08-05T08:24:01.846Z,28.30
2022-08-05T08:41:59.964Z,29.00
2022-08-05T08:46:56.118Z,29.10
2022-08-05T08:52:05.921Z,29.30
2022-08-05T08:57:11.481Z,29.50
2022-08-05T09:02:09.554Z,29.70
2022-08-05T09:07:03.456Z,30.00
2022-08-05T09:12:20.435Z,30.20
2022-08-05T09:17:41.124Z,30.40
2022-08-05T09:23:19.861Z,30.30
2022-08-05T09:28:32.192Z,30.60
2022-08-05T09:33:35.087Z,30.90
2022-08-05T09:38:29.869Z,31.10
2022-08-05T09:43:40.461Z,31.40
2022-08-05T09:48:38.369Z,31.60
2022-08-05T09:53:53.684Z,31.80
2022-08-05T09:58:59.867Z,32.00
2022-08-05T10:04:00.288Z,32.30
2022-08-05T10:08:55.661Z,32.70
2022-08-05T10:13:49.546Z,33.10
2022-08-05T10:18:49.893Z,33.30
2022-08-05T10:23:59.208Z,33.40
2022-08-05T10:28:56.517Z,33.50
2022-08-05T10:33:54.227Z,33.70
2022-08-05T10:38:51.173Z,34.10
2022-08-05T10:43:51.824Z,34.10
2022-08-05T10:48:52.591Z,34.50
2022-08-05T10:54:01.003Z,34.60
2022-08-05T11:00:01.322Z,35.00
2022-08-05T11:04:26.251Z,35.30
2022-08-05T11:09:32.013Z,35.70
2022-08-05T11:15:01.267Z,35.80
2022-08-05T11:20:17.176Z,36.10
2022-08-05T11:26:05.242Z,36.10
2022-08-05T11:31:57.607Z,36.30
2022-08-05T11:36:52.865Z,36.30
2022-08-05T11:42:02.419Z,36.70
2022-08-05T11:47:11.067Z,37.20
2022-08-05T11:52:11.922Z,37.50
2022-08-05T11:57:24.334Z,37.70
2022-08-05T12:02:24.486Z,37.80
2022-08-05T12:08:08.838Z,37.80
2022-08-05T12:12:55.402Z,37.90
2022-08-05T12:18:04.425Z,38.20
2022-08-05T12:23:14.282Z,38.40
2022-08-05T12:28:09.328Z,38.60
2022-08-05T12:33:27.328Z,38.70
2022-08-05T12:38:30.214Z,38.90
2022-08-05T12:43:26.946Z,39.00
2022-08-05T12:48:32.692Z,39.10
2022-08-05T12:53:37.146Z,39.30
2022-08-05T12:58:50.015Z,39.40
2022-08-05T13:03:48.721Z,39.40
2022-08-05T13:08:50.767Z,39.50
2022-08-05T13:14:04.639Z,39.80
2022-08-05T13:19:03.413Z,39.80
2022-08-05T13:23:58.694Z,39.90
2022-08-05T13:28:54.163Z,40.10
2022-08-05T13:34:24.286Z,40.00
2022-08-05T13:39:01.933Z,39.90
2022-08-05T13:44:04.268Z,39.40
2022-08-05T13:49:00.758Z,39.30
2022-08-05T13:53:56.465Z,39.90
2022-08-05T13:58:53.368Z,39.40
2022-08-05T14:04:10.424Z,38.70
2022-08-05T14:09:08.423Z,38.00
2022-08-05T14:14:03.204Z,37.20
2022-08-05T14:19:04.211Z,36.60
2022-08-05T14:23:58.532Z,36.00
2022-08-05T14:28:54.489Z,35.60
2022-08-05T14:34:00.229Z,35.40
2022-08-05T14:38:57.205Z,35.00
2022-08-05T14:44:02.244Z,34.60
2022-08-05T14:49:06.427Z,34.30
2022-08-05T14:54:26.768Z,34.00
2022-08-05T14:59:18.466Z,33.70
2022-08-05T15:04:14.856Z,33.40
2022-08-05T15:09:10.761Z,33.30
2022-08-05T15:14:04.565Z,33.20
2022-08-05T15:18:58.706Z,32.90
2022-08-05T15:23:54.462Z,32.70
2022-08-05T15:28:51.956Z,32.50
2022-08-05T15:34:05.591Z,32.00
2022-08-05T15:41:04.619Z,31.80
2022-08-05T15:44:18.784Z,31.60
2022-08-05T15:49:18.121Z,31.50
2022-08-05T15:54:20.043Z,31.30
2022-08-05T15:59:30.033Z,31.20
2022-08-05T16:04:25.403Z,31.10
2022-08-05T16:09:22.164Z,30.90
2022-08-05T16:14:17.273Z,30.80
2022-08-05T16:19:18.906Z,30.80
2022-08-05T16:24:40.364Z,30.70
2022-08-05T16:29:37.283Z,30.60
2022-08-05T16:34:33.460Z,30.50
2022-08-05T16:40:05.960Z,30.40
2022-08-05T16:44:41.654Z,30.30
2022-08-05T16:49:42.446Z,30.20
2022-08-05T16:54:36.373Z,30.10
2022-08-05T16:59:32.559Z,30.00
2022-08-05T17:04:47.521Z,30.00
2022-08-05T17:09:58.389Z,29.90
2022-08-05T17:14:53.066Z,29.90
2022-08-05T17:19:55.457Z,29.80
2022-08-05T17:24:57.525Z,29.80
2022-08-05T17:29:53.085Z,29.60
2022-08-05T17:34:55.870Z,29.50
2022-08-05T17:39:55.879Z,29.30
2022-08-05T17:44:51.086Z,29.30
2022-08-05T17:50:00.582Z,29.20
